Time;durP1;ratioP1;P1;durP2;ratioP2;P2;SDS_P1;SDS_P2;PMS_P1;PMS_P2;Temp;Humidity;BMP_temperature;BMP_pressure;BME280_temperature;BME280_humidity;BME280_pressure;Samples;Min_cycle;Max_cycle;Signal;HPM_P1;HPM_P2
2022/05/10 00:00:27;;;;;;;2.73;2.20;;;11.20;99.90;;;;;;7373513;19;20316;-76
2022/05/10 00:02:54;;;;;;;2.87;2.60;;;11.10;99.90;;;;;;7376360;19;20348;-77
2022/05/10 00:05:28;;;;;;;3.67;2.70;;;11.10;99.90;;;;;;7375281;19;20372;-76
2022/05/10 00:07:54;;;;;;;3.13;2.33;;;11.10;99.90;;;;;;7375421;19;20309;-77
2022/05/10 00:10:19;;;;;;;4.77;2.57;;;11.10;99.90;;;;;;7372894;19;20351;-76
2022/05/10 00:12:45;;;;;;;2.55;2.35;;;10.80;99.90;;;;;;7375432;19;20332;-76
2022/05/10 00:15:11;;;;;;;2.87;2.30;;;10.80;99.90;;;;;;7371253;19;20356;-76
2022/05/10 00:17:38;;;;;;;3.92;2.45;;;10.80;99.90;;;;;;7375415;19;20337;-77
2022/05/10 00:20:05;;;;;;;2.83;2.53;;;10.80;99.90;;;;;;7376964;19;20319;-76
2022/05/10 00:22:31;;;;;;;4.88;2.50;;;10.70;99.90;;;;;;7375825;19;21002;-76
2022/05/10 00:24:56;;;;;;;3.90;2.73;;;10.70;99.90;;;;;;7374493;19;20304;-77
2022/05/10 00:27:22;;;;;;;3.88;2.92;;;10.70;99.90;;;;;;7383438;19;20326;-77
2022/05/10 00:29:48;;;;;;;2.90;2.47;;;10.50;99.90;;;;;;7376000;19;20332;-76
2022/05/10 00:32:14;;;;;;;2.93;2.63;;;10.50;99.90;;;;;;7375869;19;20408;-76
2022/05/10 00:34:39;;;;;;;2.78;2.50;;;10.40;99.90;;;;;;7374614;19;20336;-76
2022/05/10 00:37:05;;;;;;;3.60;2.60;;;10.50;99.90;;;;;;7382033;19;20369;-76
2022/05/10 00:39:33;;;;;;;4.95;2.78;;;10.30;99.90;;;;;;7382367;19;20874;-77
2022/05/10 00:42:27;;;;;;;3.75;2.63;;;10.40;99.90;;;;;;7378763;19;20361;-77
2022/05/10 00:45:02;;;;;;;3.88;2.40;;;10.30;99.90;;;;;;7277211;19;2004484;-76
2022/05/10 00:48:02;;;;;;;3.08;2.65;;;10.20;99.90;;;;;;7383255;19;20332;-77
2022/05/10 00:50:45;;;;;;;3.67;2.85;;;10.20;99.90;;;;;;7277048;19;2004357;-76
2022/05/10 00:53:18;;;;;;;3.85;2.95;;;10.10;99.90;;;;;;7278654;19;2004410;-76
2022/05/10 00:56:06;;;;;;;4.50;3.00;;;10.00;99.90;;;;;;7378036;19;20923;-77
2022/05/10 00:58:46;;;;;;;4.38;2.75;;;10.00;99.90;;;;;;7279186;19;2004339;-77
2022/05/10 01:01:16;;;;;;;3.85;2.47;;;9.90;99.90;;;;;;7378268;19;20349;-77
2022/05/10 01:04:01;;;;;;;3.43;2.47;;;10.00;99.90;;;;;;7382273;19;20687;-76
2022/05/10 01:06:28;;;;;;;3.85;2.50;;;9.90;99.90;;;;;;7277429;19;2004470;-76
2022/05/10 01:09:16;;;;;;;3.47;2.50;;;9.90;99.90;;;;;;7383727;19;20316;-77
2022/05/10 01:12:12;;;;;;;4.88;2.75;;;9.80;99.90;;;;;;7278042;19;2004426;-77
2022/05/10 01:14:45;;;;;;;3.90;2.90;;;9.80;99.90;;;;;;7380336;19;20815;-76
2022/05/10 01:17:12;;;;;;;4.88;2.78;;;9.70;99.90;;;;;;7383259;19;20317;-77
2022/05/10 01:19:39;;;;;;;3.07;2.43;;;9.80;99.90;;;;;;7381259;19;20376;-77
2022/05/10 01:22:09;;;;;;;3.20;2.63;;;9.80;99.90;;;;;;7381219;19;20418;-76
2022/05/10 01:25:08;;;;;;;2.70;2.42;;;9.70;99.90;;;;;;7380252;19;20681;-76
2022/05/10 01:28:08;;;;;;;3.47;3.10;;;9.70;99.90;;;;;;7277211;19;2005719;-77
2022/05/10 01:30:34;;;;;;;3.27;2.50;;;9.70;99.90;;;;;;7274892;19;2004432;-77
2022/05/10 01:35:51;;;;;;;3.28;2.65;;;9.60;99.90;;;;;;7277788;19;2004384;-76
2022/05/10 01:38:31;;;;;;;4.20;2.55;;;9.50;99.90;;;;;;7382762;19;20331;-76
2022/05/10 01:41:20;;;;;;;4.05;2.90;;;9.40;99.90;;;;;;7277847;19;2004320;-76
2022/05/10 01:44:09;;;;;;;3.03;2.73;;;9.40;99.90;;;;;;7274837;19;2004373;-77
2022/05/10 01:46:35;;;;;;;3.20;2.78;;;9.40;99.90;;;;;;7376256;19;20725;-75
2022/05/10 01:49:11;;;;;;;3.83;3.15;;;9.30;99.90;;;;;;7376189;19;20329;-76
2022/05/10 01:51:52;;;;;;;4.65;2.78;;;9.30;99.90;;;;;;7376597;19;20321;-76
2022/05/10 01:54:39;;;;;;;4.30;2.72;;;9.10;99.90;;;;;;7376301;19;20381;-78
2022/05/10 01:57:07;;;;;;;4.13;2.63;;;9.00;99.90;;;;;;7380559;19;20373;-75
2022/05/10 01:59:32;;;;;;;3.57;2.80;;;9.00;99.90;;;;;;7381606;19;20344;-76
2022/05/10 02:01:58;;;;;;;3.20;2.45;;;9.00;99.90;;;;;;7386395;19;20312;-76
2022/05/10 02:04:30;;;;;;;5.17;3.10;;;9.00;99.90;;;;;;7382083;19;20348;-77
2022/05/10 02:07:00;;;;;;;4.05;2.90;;;8.90;99.90;;;;;;7378308;19;20325;-76
2022/05/10 02:09:36;;;;;;;2.90;2.67;;;8.90;99.90;;;;;;7378070;19;20347;-77
2022/05/10 02:12:20;;;;;;;3.33;2.90;;;8.90;99.90;;;;;;7377723;19;20325;-76
2022/05/10 02:14:48;;;;;;;3.25;2.78;;;8.90;99.90;;;;;;7375703;19;20341;-76
2022/05/10 02:17:33;;;;;;;3.92;2.95;;;8.80;99.90;;;;;;7358832;19;20337;-76
2022/05/10 02:20:09;;;;;;;2.80;2.57;;;8.80;99.90;;;;;;7273782;19;2004923;-76
2022/05/10 02:22:40;;;;;;;2.80;2.60;;;8.70;99.90;;;;;;7379645;19;20681;-76
2022/05/10 02:25:15;;;;;;;4.75;3.10;;;8.70;99.90;;;;;;7375020;19;20933;-77
2022/05/10 02:27:50;;;;;;;3.10;2.80;;;8.70;99.90;;;;;;7276520;19;2004406;-77
2022/05/10 02:30:18;;;;;;;3.05;2.65;;;8.70;99.90;;;;;;7375239;19;20350;-76
2022/05/10 02:35:30;;;;;;;3.22;2.90;;;8.60;99.90;;;;;;7373957;19;20833;-77
2022/05/10 02:37:56;;;;;;;2.88;2.50;;;8.60;99.90;;;;;;7380085;19;20317;-77
2022/05/10 02:40:21;;;;;;;3.83;2.70;;;8.60;99.90;;;;;;7379691;19;20332;-76
2022/05/10 02:42:50;;;;;;;3.80;2.60;;;8.50;99.90;;;;;;7381947;19;20360;-76
2022/05/10 02:45:19;;;;;;;4.85;3.22;;;8.60;99.90;;;;;;7375115;19;20328;-76
2022/05/10 02:47:46;;;;;;;5.07;3.42;;;8.50;99.90;;;;;;7379886;19;20324;-76
2022/05/10 02:50:27;;;;;;;3.47;2.95;;;8.40;99.90;;;;;;7377942;19;20317;-76
2022/05/10 02:52:53;;;;;;;4.82;3.00;;;8.40;99.90;;;;;;7277918;19;2004893;-76
2022/05/10 02:55:26;;;;;;;2.97;2.67;;;8.30;99.90;;;;;;7375249;19;20435;-76
2022/05/10 02:57:52;;;;;;;3.33;3.03;;;8.30;99.90;;;;;;7377148;19;20948;-76
2022/05/10 03:00:18;;;;;;;4.10;3.10;;;8.40;99.90;;;;;;7374478;19;20313;-77
2022/05/10 03:02:46;;;;;;;3.13;2.72;;;8.20;99.90;;;;;;7378706;19;20336;-76
2022/05/10 03:05:12;;;;;;;5.72;3.40;;;8.30;99.90;;;;;;7376705;19;20353;-76
2022/05/10 03:07:38;;;;;;;3.77;2.87;;;8.20;99.90;;;;;;7378793;19;20334;-76
2022/05/10 03:10:05;;;;;;;3.50;2.70;;;8.30;99.90;;;;;;7376011;19;20395;-76
2022/05/10 03:12:31;;;;;;;3.95;2.90;;;8.30;99.90;;;;;;7376576;19;20345;-77
2022/05/10 03:14:57;;;;;;;3.40;2.90;;;8.30;99.90;;;;;;7374092;19;21309;-77
2022/05/10 03:17:23;;;;;;;3.10;2.80;;;8.30;99.90;;;;;;7373258;19;20341;-75
2022/05/10 03:19:49;;;;;;;4.55;2.97;;;8.30;99.90;;;;;;7366509;19;20332;-76
2022/05/10 03:22:15;;;;;;;3.95;2.47;;;8.20;99.90;;;;;;7369248;19;20336;-76
2022/05/10 03:24:40;;;;;;;3.20;2.90;;;8.30;99.90;;;;;;7375191;19;20347;-76
2022/05/10 03:27:10;;;;;;;4.40;3.10;;;8.30;99.90;;;;;;7378103;19;20856;-76
2022/05/10 03:29:39;;;;;;;5.53;3.40;;;8.30;99.90;;;;;;7376523;19;20336;-76
2022/05/10 03:32:05;;;;;;;3.08;2.72;;;8.20;99.90;;;;;;7374360;19;20328;-77
2022/05/10 03:37:15;;;;;;;4.25;2.90;;;8.20;99.90;;;;;;7380965;19;20804;-76
2022/05/10 03:39:41;;;;;;;3.83;3.00;;;8.20;99.90;;;;;;7377084;19;20316;-77
2022/05/10 03:42:07;;;;;;;5.00;3.10;;;8.20;99.90;;;;;;7376644;19;20316;-76
2022/05/10 03:44:34;;;;;;;4.35;3.28;;;8.20;99.90;;;;;;7374621;19;20345;-77
2022/05/10 03:47:03;;;;;;;5.03;2.97;;;8.20;99.90;;;;;;7374082;19;20316;-77
2022/05/10 03:49:29;;;;;;;3.17;2.88;;;8.20;99.90;;;;;;7375280;19;20916;-76
2022/05/10 03:51:56;;;;;;;4.00;3.00;;;8.20;99.90;;;;;;7372973;19;20400;-77
2022/05/10 03:54:22;;;;;;;3.37;3.07;;;8.20;99.90;;;;;;7373393;19;20447;-76
2022/05/10 03:56:48;;;;;;;3.40;2.97;;;8.30;99.90;;;;;;7374505;19;20336;-75
2022/05/10 03:59:14;;;;;;;7.53;3.15;;;8.20;99.90;;;;;;7376657;19;20382;-77
2022/05/10 04:01:39;;;;;;;3.63;3.10;;;8.30;99.90;;;;;;7375407;19;20366;-76
2022/05/10 04:04:06;;;;;;;3.60;3.07;;;8.20;99.90;;;;;;7376323;19;20339;-76
2022/05/10 04:06:32;;;;;;;3.43;3.13;;;8.20;99.90;;;;;;7374723;19;20329;-76
2022/05/10 04:08:58;;;;;;;4.00;3.25;;;8.20;99.90;;;;;;7377418;19;20312;-77
2022/05/10 04:11:24;;;;;;;3.30;3.00;;;8.30;99.90;;;;;;7374234;19;20341;-76
2022/05/10 04:13:50;;;;;;;4.18;3.08;;;8.20;99.90;;;;;;7376607;19;21331;-76
2022/05/10 04:16:17;;;;;;;3.53;3.10;;;8.30;99.90;;;;;;7354710;19;20304;-77
2022/05/10 04:18:44;;;;;;;4.35;3.15;;;8.30;99.90;;;;;;7377744;19;20340;-76
2022/05/10 04:21:10;;;;;;;5.55;3.60;;;8.40;99.90;;;;;;7375731;19;20337;-76
2022/05/10 04:23:36;;;;;;;4.03;3.03;;;8.40;99.90;;;;;;7376038;19;20320;-76
2022/05/10 04:26:03;;;;;;;4.37;3.87;;;8.50;99.90;;;;;;7373020;19;20341;-76
2022/05/10 04:28:30;;;;;;;3.30;3.00;;;8.60;99.90;;;;;;7378101;19;21008;-77
2022/05/10 04:30:56;;;;;;;4.30;3.20;;;8.60;99.90;;;;;;7370418;19;20713;-77
2022/05/10 04:33:21;;;;;;;6.18;3.45;;;8.60;99.90;;;;;;7374902;19;20376;-77
2022/05/10 04:35:47;;;;;;;4.20;2.80;;;8.70;99.90;;;;;;7375419;19;20356;-76
2022/05/10 04:38:12;;;;;;;3.45;2.90;;;8.70;99.90;;;;;;7376372;19;20365;-76
2022/05/10 04:43:22;;;;;;;4.10;3.17;;;9.00;99.90;;;;;;7371333;19;20365;-79
2022/05/10 04:45:50;;;;;;;3.47;3.15;;;9.10;99.90;;;;;;7372264;19;20336;-77
2022/05/10 04:48:15;;;;;;;4.37;2.93;;;9.20;99.90;;;;;;7374975;19;20332;-78
2022/05/10 04:50:41;;;;;;;5.28;3.70;;;9.30;99.90;;;;;;7370369;19;20316;-78
2022/05/10 04:53:07;;;;;;;4.57;3.50;;;9.40;99.90;;;;;;7373480;19;20362;-78
2022/05/10 04:55:32;;;;;;;6.53;3.30;;;9.60;99.90;;;;;;7370537;19;20341;-76
2022/05/10 04:57:58;;;;;;;3.05;2.75;;;9.60;99.90;;;;;;7372455;19;20395;-77
2022/05/10 05:00:26;;;;;;;3.55;3.22;;;9.70;99.90;;;;;;7373943;19;20329;-78
2022/05/10 05:02:51;;;;;;;4.40;3.13;;;9.80;99.90;;;;;;7374373;19;20341;-77
2022/05/10 05:05:17;;;;;;;3.25;2.95;;;9.90;99.90;;;;;;7370133;19;20343;-77
2022/05/10 05:07:43;;;;;;;4.07;3.20;;;10.00;99.90;;;;;;7377461;19;20313;-78
2022/05/10 05:10:09;;;;;;;5.10;3.47;;;10.20;99.90;;;;;;7379938;19;21113;-78
2022/05/10 05:12:35;;;;;;;4.35;3.30;;;10.30;99.90;;;;;;7379515;19;20360;-78
2022/05/10 05:15:01;;;;;;;3.80;3.00;;;10.40;99.90;;;;;;7375219;19;20328;-78
2022/05/10 05:17:28;;;;;;;4.15;3.22;;;10.60;99.90;;;;;;7373919;19;20345;-78
2022/05/10 05:19:53;;;;;;;3.30;3.00;;;10.80;99.90;;;;;;7372973;19;20344;-78
2022/05/10 05:22:19;;;;;;;4.22;3.40;;;11.00;99.90;;;;;;7381148;19;20328;-77
2022/05/10 05:24:44;;;;;;;9.07;3.67;;;11.10;99.90;;;;;;7377512;19;20333;-78
2022/05/10 05:27:10;;;;;;;3.83;3.08;;;11.30;99.90;;;;;;7380192;19;20308;-78
2022/05/10 05:29:36;;;;;;;5.43;3.60;;;11.50;99.90;;;;;;7379907;19;21032;-78
2022/05/10 05:32:05;;;;;;;4.87;3.33;;;11.60;99.90;;;;;;7378383;19;20339;-78
2022/05/10 05:34:31;;;;;;;3.30;3.00;;;11.70;99.90;;;;;;7377827;19;20317;-77
2022/05/10 05:39:40;;;;;;;3.88;3.20;;;12.00;99.90;;;;;;7374422;19;20341;-79
2022/05/10 05:42:07;;;;;;;4.53;3.22;;;12.20;99.90;;;;;;7376579;19;20694;-81
2022/05/10 05:44:32;;;;;;;3.75;3.20;;;12.40;99.90;;;;;;7374995;19;20312;-78
2022/05/10 05:46:58;;;;;;;3.13;2.83;;;12.50;99.90;;;;;;7375228;19;20362;-78
2022/05/10 05:49:25;;;;;;;5.27;3.37;;;12.70;99.90;;;;;;7376539;19;21238;-77
2022/05/10 05:51:58;;;;;;;4.53;2.72;;;12.80;99.90;;;;;;7379502;19;20301;-78
2022/05/10 05:54:24;;;;;;;3.88;3.10;;;13.10;99.90;;;;;;7381966;19;20341;-79
2022/05/10 05:56:50;;;;;;;4.95;3.40;;;13.30;99.90;;;;;;7379444;19;20328;-77
2022/05/10 05:59:15;;;;;;;4.10;2.93;;;13.50;99.90;;;;;;7382689;19;20336;-78
2022/05/10 06:01:41;;;;;;;3.58;3.03;;;13.60;99.90;;;;;;7376000;19;20372;-78
2022/05/10 06:04:06;;;;;;;3.83;2.97;;;13.80;99.90;;;;;;7379623;19;20323;-78
2022/05/10 06:06:32;;;;;;;5.20;3.47;;;13.90;99.90;;;;;;7378899;19;20321;-78
2022/05/10 06:08:57;;;;;;;5.53;3.03;;;14.00;99.90;;;;;;7380201;19;20317;-79
2022/05/10 06:11:23;;;;;;;9.03;3.50;;;14.10;99.90;;;;;;7377898;19;20340;-80
2022/05/10 06:13:49;;;;;;;3.15;2.85;;;14.30;99.90;;;;;;7380823;19;20711;-77
2022/05/10 06:16:14;;;;;;;5.13;3.30;;;14.40;99.90;;;;;;7376225;19;20341;-78
2022/05/10 06:18:41;;;;;;;6.17;3.00;;;14.60;99.90;;;;;;7382677;19;20948;-79
2022/05/10 06:21:06;;;;;;;4.45;3.03;;;14.80;99.90;;;;;;7376395;19;20962;-78
2022/05/10 06:23:32;;;;;;;4.77;3.53;;;15.00;99.90;;;;;;7379158;19;20384;-78
2022/05/10 06:25:58;;;;;;;4.60;2.70;;;15.20;99.90;;;;;;7379418;19;20336;-79
2022/05/10 06:28:23;;;;;;;5.03;3.13;;;15.30;99.90;;;;;;7380516;19;20336;-79
2022/05/10 06:30:49;;;;;;;5.43;3.30;;;15.60;99.90;;;;;;7377329;19;20316;-78
2022/05/10 06:33:16;;;;;;;4.75;3.33;;;15.90;99.90;;;;;;7381804;19;20325;-80
2022/05/10 06:35:43;;;;;;;5.07;3.10;;;16.10;99.90;;;;;;7376784;19;20316;-76
2022/05/10 06:38:19;;;;;;;3.22;2.92;;;16.30;99.90;;;;;;7381559;19;20455;-78
2022/05/10 06:40:48;;;;;;;4.20;3.25;;;16.30;99.90;;;;;;7276229;19;2004361;-77
2022/05/10 06:43:14;;;;;;;5.28;3.35;;;16.40;99.90;;;;;;7380333;19;20373;-77
2022/05/10 06:45:42;;;;;;;7.35;3.42;;;16.70;99.90;;;;;;7387185;19;20391;-77
2022/05/10 06:48:09;;;;;;;5.65;2.90;;;16.70;99.90;;;;;;7385633;19;20376;-77
2022/05/10 06:50:35;;;;;;;5.05;3.20;;;16.90;99.90;;;;;;7381068;19;20937;-77
2022/05/10 06:53:01;;;;;;;3.70;3.28;;;17.00;99.90;;;;;;7378919;19;20327;-78
2022/05/10 06:55:27;;;;;;;8.18;3.25;;;17.10;99.90;;;;;;7379938;19;20325;-78
2022/05/10 06:57:53;;;;;;;6.50;3.45;;;17.30;99.90;;;;;;7379786;19;20349;-81
2022/05/10 07:00:19;;;;;;;5.30;3.77;;;17.60;99.90;;;;;;7341289;19;21217;-79
2022/05/10 07:02:45;;;;;;;4.88;3.50;;;17.50;99.90;;;;;;7379703;19;20411;-78
2022/05/10 07:05:12;;;;;;;4.85;3.30;;;17.40;99.90;;;;;;7378490;19;20332;-78
2022/05/10 07:07:37;;;;;;;5.90;3.45;;;17.50;99.90;;;;;;7377673;19;20323;-79
2022/05/10 07:10:04;;;;;;;8.23;3.78;;;17.60;99.90;;;;;;7377108;19;20341;-78
2022/05/10 07:12:30;;;;;;;3.88;2.85;;;17.50;99.90;;;;;;7376995;19;20822;-77
2022/05/10 07:14:57;;;;;;;6.43;3.45;;;17.80;99.90;;;;;;7375334;19;21327;-79
2022/05/10 07:17:22;;;;;;;4.13;2.88;;;18.10;99.90;;;;;;7379015;19;20646;-78
2022/05/10 07:19:48;;;;;;;4.68;2.78;;;18.40;99.90;;;;;;7374479;19;20360;-78
2022/05/10 07:22:14;;;;;;;4.93;2.97;;;18.80;99.90;;;;;;7376580;19;20309;-78
2022/05/10 07:24:39;;;;;;;5.10;3.30;;;19.10;99.90;;;;;;7376237;19;20345;-78
2022/05/10 07:27:05;;;;;;;3.55;2.80;;;19.30;99.90;;;;;;7380213;19;20329;-80
2022/05/10 07:29:31;;;;;;;4.90;2.90;;;19.30;99.90;;;;;;7379275;19;20321;-79
2022/05/10 07:31:57;;;;;;;6.03;3.17;;;19.30;99.90;;;;;;7376228;19;21269;-78
2022/05/10 07:34:23;;;;;;;4.63;3.10;;;19.30;99.90;;;;;;7377276;19;20896;-79
2022/05/10 07:36:48;;;;;;;4.07;3.00;;;19.50;99.90;;;;;;7378539;19;20399;-78
2022/05/10 07:39:18;;;;;;;4.53;3.60;;;19.70;99.90;;;;;;7375948;19;20308;-78
2022/05/10 07:41:43;;;;;;;4.40;3.23;;;19.60;99.90;;;;;;7375782;19;20328;-78
2022/05/10 07:44:10;;;;;;;5.50;3.15;;;19.50;99.90;;;;;;7376070;19;20343;-77
2022/05/10 07:46:36;;;;;;;2.75;2.45;;;19.60;99.90;;;;;;7377806;19;20336;-77
2022/05/10 07:49:01;;;;;;;6.05;3.00;;;19.80;99.90;;;;;;7378269;19;20321;-79
2022/05/10 07:51:27;;;;;;;4.90;2.92;;;19.90;99.90;;;;;;7372679;19;20366;-79
2022/05/10 07:53:53;;;;;;;5.03;2.77;;;20.10;99.90;;;;;;7379290;19;20320;-78
2022/05/10 07:56:18;;;;;;;4.32;2.72;;;20.50;99.90;;;;;;7378456;19;20337;-80
2022/05/10 07:58:44;;;;;;;3.70;3.00;;;20.90;99.90;;;;;;7379223;19;20956;-77
2022/05/10 08:01:10;;;;;;;3.25;2.60;;;21.10;99.90;;;;;;7370215;19;20353;-78
2022/05/10 08:03:35;;;;;;;4.30;3.00;;;21.00;99.90;;;;;;7344755;19;20342;-79
2022/05/10 08:06:01;;;;;;;6.33;2.97;;;21.00;99.40;;;;;;7377170;19;20324;-78
2022/05/10 08:08:29;;;;;;;4.80;2.80;;;20.90;98.80;;;;;;7379930;19;20352;-78
2022/05/10 08:10:55;;;;;;;5.75;3.20;;;21.10;98.40;;;;;;7340928;19;20381;-80
2022/05/10 08:13:25;;;;;;;4.35;2.95;;;21.10;99.60;;;;;;7377018;19;20903;-79
2022/05/10 08:15:51;;;;;;;4.13;3.05;;;21.20;98.40;;;;;;7374160;19;20324;-78
2022/05/10 08:18:17;;;;;;;5.40;2.90;;;21.10;97.60;;;;;;7378064;19;20863;-78
2022/05/10 08:20:43;;;;;;;3.38;2.72;;;21.30;98.60;;;;;;7377486;19;20312;-80
2022/05/10 08:23:09;;;;;;;4.27;2.90;;;21.40;98.50;;;;;;7382855;19;20364;-79
2022/05/10 08:25:35;;;;;;;5.00;3.55;;;21.50;98.30;;;;;;7378078;19;20345;-78
2022/05/10 08:28:01;;;;;;;3.88;2.80;;;21.70;98.20;;;;;;7377211;19;20332;-79
2022/05/10 08:30:27;;;;;;;3.47;2.80;;;21.70;98.70;;;;;;7372700;19;20395;-80
2022/05/10 08:32:53;;;;;;;4.83;3.00;;;22.10;99.20;;;;;;7375435;19;20502;-82
2022/05/10 08:35:19;;;;;;;10.70;3.33;;;22.00;98.50;;;;;;7372540;19;20396;-79
2022/05/10 08:37:44;;;;;;;10.17;3.10;;;22.10;98.00;;;;;;7376762;19;20316;-79
2022/05/10 08:40:24;;;;;;;4.83;2.93;;;22.30;98.20;;;;;;7375600;19;20356;-80
2022/05/10 08:42:50;;;;;;;6.85;2.78;;;22.60;97.50;;;;;;7373564;19;20312;-82
2022/05/10 08:45:18;;;;;;;3.70;2.92;;;22.70;95.50;;;;;;7350119;19;20308;-81
2022/05/10 08:47:44;;;;;;;2.90;2.60;;;23.00;95.50;;;;;;7375450;19;20344;-80
2022/05/10 08:50:11;;;;;;;3.60;2.38;;;23.00;95.00;;;;;;7373114;19;20345;-82
2022/05/10 08:52:43;;;;;;;3.97;2.88;;;23.10;94.70;;;;;;7374395;19;20316;-80
2022/05/10 08:55:09;;;;;;;3.63;2.70;;;23.10;94.20;;;;;;7380844;19;20365;-81
2022/05/10 08:57:41;;;;;;;5.78;2.78;;;22.90;94.10;;;;;;7361202;19;20353;-81
2022/05/10 09:00:40;;;;;;;3.85;2.75;;;23.00;95.00;;;;;;7379801;19;20364;-82
2022/05/10 09:03:42;;;;;;;3.57;2.50;;;23.40;92.50;;;;;;7278837;19;2004546;-79
2022/05/10 09:06:36;;;;;;;3.75;2.80;;;23.40;92.60;;;;;;7282450;19;2004347;-79
2022/05/10 09:09:11;;;;;;;4.22;2.78;;;23.70;92.50;;;;;;7281960;19;2004240;-79
2022/05/10 09:11:51;;;;;;;3.03;2.63;;;24.10;92.50;;;;;;7381308;19;20364;-81
2022/05/10 09:14:26;;;;;;;4.78;2.70;;;24.50;90.30;;;;;;7380890;19;20316;-80
2022/05/10 09:16:51;;;;;;;2.83;2.60;;;24.60;90.40;;;;;;7360216;19;20356;-81
2022/05/10 09:19:17;;;;;;;5.70;2.50;;;24.60;86.60;;;;;;7385757;19;20717;-79
2022/05/10 09:21:49;;;;;;;3.67;2.72;;;24.80;86.30;;;;;;7383988;19;20423;-81
2022/05/10 09:24:26;;;;;;;4.88;2.60;;;25.30;90.00;;;;;;7388259;19;20316;-81
2022/05/10 09:26:55;;;;;;;5.93;2.83;;;25.70;84.20;;;;;;7383051;19;20336;-81
2022/05/10 09:29:42;;;;;;;3.20;2.35;;;25.60;84.80;;;;;;7385399;19;20819;-81
2022/05/10 09:35:22;;;;;;;3.05;2.53;;;25.80;80.00;;;;;;7285460;19;2004899;-80
2022/05/10 09:37:50;;;;;;;3.80;2.22;;;25.60;82.80;;;;;;7389455;19;20331;-82
2022/05/10 09:40:32;;;;;;;4.70;2.75;;;26.00;81.40;;;;;;7384216;19;20666;-82
2022/05/10 09:43:32;;;;;;;3.95;2.90;;;26.10;79.80;;;;;;7279955;19;2004621;-82
2022/05/10 09:46:20;;;;;;;2.97;2.28;;;25.80;72.70;;;;;;7279790;19;2004517;-80
2022/05/10 09:48:46;;;;;;;3.17;2.35;;;26.50;76.40;;;;;;7282397;19;2004432;-81
2022/05/10 09:51:29;;;;;;;7.43;2.50;;;26.90;76.20;;;;;;7379823;19;20400;-82
2022/05/10 09:53:55;;;;;;;3.63;2.37;;;27.00;71.60;;;;;;7286170;19;2004257;-82
2022/05/10 09:56:26;;;;;;;3.97;2.20;;;27.20;74.40;;;;;;7388017;19;20935;-81
2022/05/10 09:58:54;;;;;;;5.63;2.20;;;27.30;70.70;;;;;;7389250;19;20312;-80
2022/05/10 10:01:36;;;;;;;4.10;2.20;;;27.40;69.70;;;;;;7379164;19;20329;-81
2022/05/10 10:04:20;;;;;;;3.40;2.33;;;27.20;66.40;;;;;;7284450;19;2004477;-80
2022/05/10 10:07:17;;;;;;;3.25;2.13;;;27.00;66.80;;;;;;7379335;19;20717;-79
2022/05/10 10:09:51;;;;;;;4.60;2.92;;;27.40;66.50;;;;;;7277058;19;2004327;-82
2022/05/10 10:12:26;;;;;;;4.33;2.33;;;27.30;64.90;;;;;;7281455;19;2004274;-80
2022/05/10 10:14:52;;;;;;;3.30;2.20;;;27.50;65.80;;;;;;7382681;19;20324;-79
2022/05/10 10:17:22;;;;;;;2.15;1.95;;;27.90;63.30;;;;;;7379253;19;21211;-81
2022/05/10 10:19:53;;;;;;;4.88;2.03;;;28.10;65.00;;;;;;7380253;19;20354;-80
2022/05/10 10:22:47;;;;;;;3.75;2.10;;;28.60;65.90;;;;;;7382166;19;20365;-80
2022/05/10 10:25:32;;;;;;;2.65;2.00;;;27.30;57.90;;;;;;7277885;19;2004516;-80
2022/05/10 10:28:17;;;;;;;4.75;2.05;;;26.90;59.10;;;;;;7382402;19;20348;-81
2022/05/10 10:30:54;;;;;;;2.00;1.80;;;26.40;58.80;;;;;;7276195;19;2004494;-81
2022/05/10 10:33:36;;;;;;;2.28;1.75;;;27.40;63.80;;;;;;7277684;19;2004378;-81
2022/05/10 10:36:14;;;;;;;2.40;1.90;;;27.90;62.40;;;;;;7277077;19;2004410;-80
2022/05/10 10:38:46;;;;;;;2.50;1.88;;;27.70;62.10;;;;;;7381631;19;20300;-81
2022/05/10 10:41:18;;;;;;;2.75;1.60;;;28.30;58.40;;;;;;7377133;19;20329;-79
2022/05/10 10:43:51;;;;;;;2.00;1.80;;;28.80;59.70;;;;;;7380272;19;20712;-81
2022/05/10 10:46:26;;;;;;;2.58;1.80;;;29.00;55.90;;;;;;7382084;19;20376;-81
2022/05/10 10:48:56;;;;;;;2.00;1.75;;;29.50;57.50;;;;;;7381003;19;20317;-81
2022/05/10 10:51:23;;;;;;;2.78;1.77;;;30.00;57.20;;;;;;7382188;19;20640;-81
2022/05/10 10:53:49;;;;;;;1.95;1.63;;;30.30;57.20;;;;;;7383385;19;20396;-81
2022/05/10 10:56:49;;;;;;;3.45;1.70;;;30.20;54.80;;;;;;7379644;19;21226;-80
2022/05/10 10:59:40;;;;;;;2.38;1.60;;;30.60;56.10;;;;;;7279425;19;2004359;-81
2022/05/10 11:02:23;;;;;;;3.25;2.45;;;31.10;54.80;;;;;;7380058;19;20451;-83
2022/05/10 11:05:13;;;;;;;2.05;1.92;;;31.20;52.90;;;;;;7380783;19;20337;-84
2022/05/10 11:07:59;;;;;;;2.15;1.67;;;31.50;55.20;;;;;;7277156;19;2005938;-83
2022/05/10 11:10:50;;;;;;;2.03;1.80;;;31.20;51.40;;;;;;7375077;19;20344;-84
2022/05/10 11:13:33;;;;;;;1.70;1.60;;;30.70;51.90;;;;;;7280749;19;2004503;-85
2022/05/10 11:16:22;;;;;;;1.60;1.50;;;30.80;50.90;;;;;;7274965;19;2006012;-82
2022/05/10 11:19:03;;;;;;;2.17;1.67;;;31.00;54.10;;;;;;7379514;19;20324;-82
2022/05/10 11:21:44;;;;;;;2.05;1.85;;;30.70;50.80;;;;;;7379274;19;20344;-83
2022/05/10 11:24:18;;;;;;;2.10;1.88;;;30.50;51.20;;;;;;7382769;19;20335;-85
2022/05/10 11:27:05;;;;;;;1.83;1.65;;;30.70;51.10;;;;;;7378556;19;20341;-83
2022/05/10 11:29:34;;;;;;;2.25;1.70;;;30.50;52.00;;;;;;7276856;19;2004476;-83
2022/05/10 11:32:37;;;;;;;1.95;1.50;;;31.10;50.50;;;;;;7378630;19;20328;-82
2022/05/10 11:35:15;;;;;;;1.80;1.70;;;31.20;49.20;;;;;;7279302;19;2004165;-83
2022/05/10 11:38:09;;;;;;;1.50;1.40;;;31.10;50.30;;;;;;7384995;19;20347;-83
2022/05/10 11:41:15;;;;;;;1.70;1.60;;;31.40;49.10;;;;;;7273434;19;2004368;-84
2022/05/10 11:43:55;;;;;;;3.17;1.80;;;31.50;49.70;;;;;;7176628;19;2004534;-84
2022/05/10 11:46:33;;;;;;;1.70;1.58;;;31.70;47.90;;;;;;7276940;19;2004246;-81
2022/05/10 11:49:19;;;;;;;2.40;1.77;;;32.00;47.90;;;;;;7280651;19;2004292;-82
2022/05/10 11:51:59;;;;;;;2.38;2.10;;;32.10;47.90;;;;;;7273575;19;2004587;-82
2022/05/10 11:54:29;;;;;;;2.25;1.90;;;32.20;48.80;;;;;;7377998;19;20371;-80
2022/05/10 11:56:55;;;;;;;2.78;1.52;;;32.40;48.10;;;;;;7376221;19;20337;-81
2022/05/10 11:59:35;;;;;;;2.93;1.73;;;32.60;47.00;;;;;;7376560;19;20348;-82
2022/05/10 12:02:02;;;;;;;1.90;1.70;;;32.10;45.10;;;;;;7376733;19;20341;-83
2022/05/10 12:04:35;;;;;;;1.48;1.38;;;31.70;47.20;;;;;;7374883;19;20352;-82
2022/05/10 12:07:19;;;;;;;1.63;1.52;;;31.70;41.80;;;;;;7375239;19;20337;-81
2022/05/10 12:09:57;;;;;;;2.08;1.75;;;31.80;42.20;;;;;;7376243;19;20357;-82
2022/05/10 12:12:31;;;;;;;1.70;1.60;;;31.10;41.90;;;;;;7377598;19;20426;-82
2022/05/10 12:23:18;;;;;;;1.73;1.50;;;31.80;43.00;;;;;;7378168;19;20321;-83
2022/05/10 12:25:48;;;;;;;1.30;1.23;;;32.00;39.80;;;;;;7377042;19;20365;-84
2022/05/10 12:28:45;;;;;;;2.10;1.60;;;31.60;39.70;;;;;;7377709;19;20360;-83
2022/05/10 12:31:32;;;;;;;1.90;1.50;;;31.20;40.60;;;;;;7277833;19;2004547;-83
2022/05/10 12:34:02;;;;;;;2.20;1.53;;;30.40;41.60;;;;;;7385238;19;20352;-82
2022/05/10 12:36:32;;;;;;;1.40;1.30;;;30.30;39.70;;;;;;7381911;19;20467;-84
2022/05/10 12:39:15;;;;;;;1.60;1.50;;;31.20;42.10;;;;;;7382389;19;20316;-83
2022/05/10 12:41:44;;;;;;;3.40;1.88;;;30.60;41.60;;;;;;7379387;19;20348;-84
2022/05/10 12:44:51;;;;;;;1.50;1.40;;;31.10;42.40;;;;;;7384582;19;20339;-83
2022/05/10 12:47:46;;;;;;;2.10;1.60;;;31.50;44.60;;;;;;7180696;19;2004374;-84
2022/05/10 12:50:41;;;;;;;1.40;1.30;;;32.60;40.40;;;;;;7281934;19;2004494;-87
2022/05/10 12:53:22;;;;;;;4.10;2.40;;;32.30;40.60;;;;;;7281304;19;2004720;-84
2022/05/10 12:55:48;;;;;;;1.63;1.53;;;32.70;41.50;;;;;;7382100;19;20316;-81
2022/05/10 12:58:22;;;;;;;1.70;1.50;;;32.90;41.60;;;;;;7385947;19;20318;-83
2022/05/10 13:00:51;;;;;;;2.85;1.80;;;33.00;41.80;;;;;;7383884;19;20357;-86
2022/05/10 13:03:22;;;;;;;3.30;1.85;;;33.20;42.60;;;;;;7386297;19;20344;-82
2022/05/10 13:06:18;;;;;;;2.88;1.77;;;32.20;39.50;;;;;;7382539;19;20717;-82
2022/05/10 13:09:04;;;;;;;1.67;1.58;;;31.40;42.60;;;;;;7387656;19;20349;-82
2022/05/10 13:11:54;;;;;;;2.03;1.65;;;31.80;42.70;;;;;;7283598;19;2004564;-81
2022/05/10 13:14:19;;;;;;;1.50;1.40;;;32.90;45.50;;;;;;7283932;19;2004472;-84
2022/05/10 13:16:52;;;;;;;1.60;1.50;;;33.10;40.80;;;;;;7385146;19;20323;-86
2022/05/10 13:19:19;;;;;;;1.90;1.70;;;32.90;41.50;;;;;;7386760;19;20337;-82
2022/05/10 13:21:44;;;;;;;2.25;1.70;;;33.10;40.20;;;;;;7380911;19;20460;-83
2022/05/10 13:24:12;;;;;;;2.53;1.80;;;33.40;41.60;;;;;;7384997;19;20364;-84
2022/05/10 13:26:50;;;;;;;3.00;1.50;;;33.60;39.80;;;;;;7384657;19;20313;-83
2022/05/10 13:29:15;;;;;;;2.40;1.60;;;33.70;40.90;;;;;;7282417;19;2004446;-84
2022/05/10 13:31:41;;;;;;;2.73;1.60;;;33.50;39.00;;;;;;7378302;19;20467;-85
2022/05/10 13:34:14;;;;;;;1.70;1.60;;;33.20;41.60;;;;;;7385448;19;20393;-85